Flight Track Log - Related Links

Times and Time Zones

All times are in EDT time to prevent confusion due to time zone crossing. See the N779NC flight status page for this flight to view local times or setup timezone preferences in your user account.

Time Position Orientation Groundspeed Altitude Reporting Facility
EDT Latitude Longitude Course Direction KTS MPH feet Rate Location/Type
Mon 06:56:28 AM 34.7881 -82.3039 261° West 215 247 4,800  Level Atlanta Center
Mon 06:57:00 AM 34.8230 -82.5862 251° West  Level FlightAware Approximate
Mon 06:57:28 AM 34.7683 -82.3850 254° West 247 284 7,500  Level Atlanta Center
Mon 06:58:00 AM 34.7985 -82.6758 259° West  Level FlightAware Approximate
Mon 06:58:28 AM 34.7569 -82.4739 261° West 260 299 10,000  Level Atlanta Center
Mon 06:59:00 AM 34.7831 -82.7684 259° West  Level FlightAware Approximate
Mon 06:59:28 AM 34.7644 -82.5747 275° West 282 325 12,800  Level Atlanta Center
Mon 07:00:00 AM 34.7676 -82.8610 259° West  Level FlightAware Approximate
Mon 07:00:28 AM 34.7592 -82.6683 266° West 282 325 15,100  Level Atlanta Center
Mon 07:01:00 AM 34.7557 -82.9543 261° West  Level FlightAware Approximate
Mon 07:01:28 AM 34.7456 -82.7672 261° West 288 331 17,400  Level Atlanta Center
Mon 07:02:28 AM 34.7342 -82.8661 262° West 296 341 19,500 1,300 Climbing Atlanta Center
Mon 07:03:28 AM 34.7267 -82.9772 265° West 296 341 20,000 250 Climbing Atlanta Center
Mon 07:04:28 AM 34.7089 -83.0811 258° West 304 350 20,000  Level Atlanta Center
Mon 07:05:28 AM 34.6992 -83.1847 264° West 310 357 20,000  Level Atlanta Center
Mon 07:06:28 AM 34.7019 -83.2808 272° West 320 368 20,000  Level Atlanta Center
Mon 07:07:28 AM 34.6647 -83.3619 241° Southwest 282 325 20,000  Level Atlanta Center
Mon 07:08:28 AM 34.5731 -83.4056 201° Southwest 307 353 20,000 -50 Level Atlanta Center
Mon 07:09:28 AM 34.4858 -83.4794 215° Southwest 358 412 19,900 -700 Descending Atlanta Center
Mon 07:10:28 AM 34.4006 -83.5528 215° Southwest 381 438 18,600 -2,100 Descending Atlanta Center
Mon 07:11:28 AM 34.3175 -83.6239 215° Southwest 376 433 15,700 -2,200 Descending Atlanta Center
Mon 07:12:28 AM 34.2278 -83.7022 216° Southwest 376 433 14,200 -850 Descending Atlanta Center
Mon 07:13:28 AM 34.1467 -83.7803 219° Southwest 376 433 14,000 -100 Descending Atlanta Center
Mon 07:14:28 AM 34.0800 -83.8783 231° Southwest 371 427 14,000 -700 Level Atlanta Center
Mon 07:15:28 AM 34.0133 -83.9686 228° Southwest 369 425 12,600 -1,000 Descending Atlanta Center
Mon 07:16:28 AM 33.9444 -84.0589 227° Southwest 363 418 12,000 -300 Descending Atlanta Center
Mon 07:17:28 AM 33.8736 -84.1389 223° Southwest 368 423 12,000  Level Atlanta Center
Mon 07:18:28 AM 33.8108 -84.2139 225° Southwest 337 388 12,000  Level Atlanta Center
Mon 07:19:28 AM 33.7606 -84.2761 226° Southwest 311 358 12,000 -1,000 Level Atlanta Center
Mon 07:20:28 AM 33.7375 -84.3686 253° West 286 329 10,000 -1,911 Descending Atlanta Center
Mon 07:21:43 AM 33.7333 -84.4833 268° West 274 315 7,700 -1,822 Descending Atlanta TRACON
Mon 07:22:43 AM 33.7167 -84.5833 259° West 266 306 5,900 -1,421 Descending Atlanta TRACON
Mon 07:23:37 AM 33.7167 -84.6667 270° West 266 306 5,000 -474 Descending Atlanta TRACON
Mon 07:24:37 AM 33.7167 -84.7333 270° West 229 264 5,000  Level Atlanta TRACON
Mon 07:25:37 AM 33.6667 -84.7500 196° South 231 266 5,000  Level Atlanta TRACON
Mon 07:26:31 AM 33.6500 -84.7000 112° Southeast 225 259 5,000 -579 Level Atlanta TRACON
Mon 07:27:31 AM 33.6500 -84.6167 90° East 213 245 3,900 -1,105 Descending Atlanta TRACON
Mon 07:28:25 AM 33.6500 -84.5667 90° East 205 236 2,900 -1,053 Descending Atlanta TRACON
Mon 07:29:25 AM 33.6500 -84.5000 90° East 176 203 1,900 -842 Descending Atlanta TRACON
Mon 07:30:19 AM 33.6500 -84.4500 90° East 142 163 1,300 -667 Descending Atlanta TRACON

Login

Don't have an account? Register now (free) for customized features, flight alerts, and more!